South Canaan, Connecticut
Current Conditions -  °F | °C
As of 4:54 AM on Tuesday 21 Oct 2014 (Local Time) from KPSF Reporting Station
Overcast Overcast  
Wind Chill: 43°   Ceiling: 9000
Heat Index: 43°   Visibility: 9mi
Dew Point: 42°   Wind: 0mph
Humidity: 97%   Direction: NA
Pressure: 29.91"   Gusts: NA
Location:  41.9623°N, 73.3235°W
Report Text: KPSF 210854Z AUTO 00000KT 9SM OVC090 06/06 A2991 RMK AO2 RAE15 SLP123 P0000 60001 T00610056 56011
Loading
Personal Weather Stations






























Interactive Weather Map
Tropical Storm Tracking
New forecast layout! Learn more

10-Day Weather Forecast

Advertisements
Track Severe Weather on mobile